Weather observations for the past three days for
Minden Airport
Imperial (Metric)
Date Time (cdt) Wind (mph) Vis. (mi.) Weather Sky Cond. Temperature (ºF) Relative Humidity Wind Chill (°F) Heat Index (°F) Pressure Precipitation (in)
Air Dwpt 6 hour altimeter (in) sea level (mb) 1 hr 3 hr 6 hr
Max. Min.
05 18:35 S 10 10.00 Fair CLR 80.6 68 66% 83 29.72 0.0 0.01
05 18:15 Calm 10.00 Fair CLR 80.6 68 66% 83 29.71 0.0 0.01
05 17:55 S 9 G 16 10.00 Partly Cloudy SCT031 SCT036 80.6 68 66% 83 29.71 0.0
05 17:35 S 9 G 18 10.00 Partly Cloudy SCT031 80.6 68 66% 83 29.72 0.0
05 17:15 Calm 10.00 Partly Cloudy SCT029 82.4 68 62% 85 29.72 0.0
05 16:55 S 10 G 17 10.00 Partly Cloudy SCT029 SCT042 SCT048 80.6 68 66% 83 29.72 0.0 0.01
05 16:35 S 10 0.00 NULL NULL 80.6 68 66% 83 29.73 0.0
05 16:15 S 8 G 21 10.00 Overcast SCT026 BKN033 OVC039 78.8 66.2 65% 81 29.74 0.0
05 15:55 S 12 G 22 10.00 Overcast BKN027 OVC037 80.6 66.2 62% 83 29.74 0.0 0.01
05 15:35 S 10 G 18 10.00 Overcast SCT026 BKN031 OVC042 80.6 66.2 62% 83 29.73 0.0 0.01
05 15:15 S 10 G 21 10.00 Overcast BKN025 BKN033 OVC040 80.6 66.2 62% 83 29.74 0.0 0.01
05 14:55 S 10 G 21 10.00 Overcast BKN025 BKN030 OVC047 80.6 68 66% 83 29.75 0.0
05 14:35 S 10 10.00 Overcast BKN025 BKN031 OVC047 80.6 68 66% 83 29.76 0.0
05 14:15 S 9 G 16 10.00 Overcast BKN023 OVC032 78.8 66.2 65% 81 29.77 0.0
05 13:55 S 8 G 16 10.00 Overcast BKN023 OVC029 78.8 66.2 65% 81 29.77 0.0 0.01
05 13:35 S 6 G 22 10.00 Overcast BKN021 OVC030 77 66.2 69% 79 29.77 0.0
05 13:15 S 9 G 18 10.00 Overcast OVC021 77 64.4 65% 79 29.77 0.0
05 12:55 S 14 G 18 10.00 Overcast BKN019 OVC026 77 64.4 65% 79 29.76 0.0 0.01
05 12:35 S 10 G 18 10.00 Overcast OVC019 75.2 64.4 69% 77 29.78 0.0 0.01
05 11:55 S 10 10.00 Overcast OVC014 73.4 64.4 74% 29.79 0.0
05 11:35 S 8 G 17 10.00 Overcast OVC014 71.6 64.4 78% 29.79 0.0
05 11:15 S 9 10.00 Overcast OVC014 71.6 64.4 78% 29.8 0.0
05 10:55 S 7 10.00 Overcast OVC014 71.6 64.4 78% 29.79 0.0 0.01
05 10:35 S 8 G 17 10.00 Overcast OVC012 69.8 62.6 78% 29.8 0.0 0.01
05 09:55 S 5 10.00 Overcast OVC012 69.8 62.6 78% 29.79 0.0
05 09:35 S 6 10.00 Overcast OVC012 68 62.6 83% 29.79 0.0
05 09:15 S 8 10.00 Overcast OVC012 68 62.6 83% 29.79 0.0
05 08:55 S 8 10.00 Overcast OVC012 68 62.6 83% 29.79 0.0
05 08:35 S 7 10.00 Overcast OVC012 68 60.8 78% 29.79 0.0
05 08:15 S 5 10.00 Overcast OVC012 66.2 60.8 83% 29.79 0.0
05 07:35 S 3 10.00 Overcast BKN012 OVC026 66.2 60.8 83% 29.78 0.0
05 07:15 S 7 10.00 Overcast OVC012 64.4 60.8 88% 29.78 0.0
05 06:55 S 6 10.00 Overcast OVC012 64.4 60.8 88% 29.78 0.0
05 06:15 S 7 10.00 Overcast OVC014 64.4 60.8 88% 29.77 0.0
05 05:55 S 7 10.00 Overcast OVC016 64.4 60.8 88% 29.77 0.0 0.01
05 05:35 S 6 10.00 Overcast OVC016 64.4 59 83% 29.77 0.0
05 05:15 S 5 10.00 Overcast OVC016 64.4 59 83% 29.77 0.0
05 04:55 S 10 G 16 10.00 Overcast BKN018 OVC032 64.4 59 83% 29.78 0.0
05 04:35 S 5 10.00 Partly Cloudy SCT032 64.4 59 83% 29.79 0.0
05 04:15 S 7 10.00 Partly Cloudy SCT015 64.4 59 83% 29.79 0.0
05 03:55 S 6 10.00 Partly Cloudy SCT017 64.4 59 83% 29.79 0.0
05 03:35 S 5 10.00 Partly Cloudy SCT017 66.2 59 78% 29.79 0.0
05 03:15 S 8 10.00 Mostly Cloudy BKN017 66.2 59 78% 29.79 0.0
05 02:55 Calm 10.00 Partly Cloudy SCT019 66.2 59 78% 29.8 0.0 0.01
05 02:35 SE 7 10.00 Fair CLR 66.2 59 78% 29.8 0.0
05 02:15 S 7 10.00 Fair CLR 68 59 73% 29.81 0.0
05 01:55 S 5 10.00 Fair CLR 68 59 73% 29.82 0.0
05 01:35 S 6 10.00 Fair CLR 68 59 73% 29.83 0.0
05 01:15 S 6 10.00 Fair CLR 68 59 73% 29.83 0.0
05 00:55 S 7 10.00 Fair CLR 68 57.2 69% 29.83 0.0 0.01
05 00:35 S 6 10.00 Fair CLR 68 57.2 69% 29.83 0.0 0.01
05 00:15 S 8 G 18 10.00 Fair CLR 68 57.2 69% 29.82 0.0
04 23:55 S 8 10.00 Fair CLR 68 55.4 64% 29.84 0.0
04 23:35 S 6 10.00 Fair CLR 69.8 55.4 60% 29.83 0.0
04 23:15 SE 6 10.00 Fair CLR 69.8 55.4 60% 29.83 0.0
04 22:55 S 7 10.00 Fair CLR 69.8 55.4 60% 29.84 0.0
04 22:35 S 5 10.00 Fair CLR 69.8 53.6 57% 29.84 0.0
04 22:15 S 9 10.00 Fair CLR 69.8 53.6 57% 29.84 0.0
04 21:55 SE 6 10.00 Fair CLR 69.8 53.6 57% 29.83 0.0 0.01
04 21:35 SE 5 10.00 Fair CLR 69.8 53.6 57% 29.82 0.0
04 21:15 S 7 10.00 Fair CLR 71.6 53.6 53% 29.82 0.0
04 20:55 S 6 10.00 Fair CLR 71.6 53.6 53% 29.82 0.0
04 20:35 S 6 10.00 Fair CLR 71.6 51.8 50% 29.81 0.0
04 20:15 S 5 10.00 Fair CLR 73.4 51.8 47% 29.8 0.0
04 19:55 S 5 10.00 Fair CLR 73.4 51.8 47% 29.81 0.0 0.01
04 19:35 S 6 10.00 Fair CLR 73.4 51.8 47% 29.81 0.0
04 19:15 S 7 10.00 Fair CLR 75.2 51.8 44% 78 29.82 0.0
04 18:55 S 3 10.00 Fair CLR 77 50 39% 78 29.83 0.0
04 18:35 S 10 10.00 Fair CLR 77 50 39% 78 29.82 0.0
04 18:15 S 7 10.00 Fair CLR 78.8 48.2 34% 79 29.83 0.0
04 17:55 S 10 G 16 10.00 Fair CLR 78.8 46.4 32% 79 29.84 0.0 0.01
04 17:35 S 9 10.00 Fair CLR 78.8 46.4 32% 79 29.85 0.0
04 17:15 S 8 10.00 Fair CLR 78.8 48.2 34% 79 29.85 0.0
04 16:55 S 9 10.00 Fair CLR 78.8 46.4 32% 79 29.86 0.0 0.01
04 16:35 S 9 G 16 10.00 Fair CLR 78.8 46.4 32% 79 29.87 0.0 0.01
04 16:15 SW 10 G 17 10.00 Fair CLR 78.8 46.4 32% 79 29.88 0.0
04 15:55 S 7 G 16 10.00 Fair CLR 78.8 44.6 30% 79 29.89 0.0
04 15:35 SW 13 G 17 10.00 Fair CLR 78.8 46.4 32% 79 29.9 0.0
04 15:15 SW 13 G 21 10.00 Fair CLR 78.8 44.6 30% 79 29.91 0.0
04 14:55 S 9 G 17 10.00 Fair CLR 78.8 46.4 32% 79 29.92 0.0 0.01
04 14:35 S 8 G 18 10.00 Fair CLR 77 44.6 32% 78 29.94 0.0 0.01
04 14:15 S 13 G 21 10.00 Fair CLR 77 46.4 34% 78 29.95 0.0
04 13:55 SW 12 G 17 10.00 Fair CLR 77 44.6 32% 78 29.95 0.0
04 13:35 S 7 G 18 10.00 Fair CLR 77 46.4 34% 78 29.96 0.0
04 13:15 S 12 G 17 10.00 Fair CLR 77 46.4 34% 78 29.97 0.0
04 12:55 S 7 G 16 10.00 Fair CLR 75.2 46.4 36% 77 29.97 0.0 0.01
04 12:35 S 15 G 20 10.00 Fair CLR 75.2 46.4 36% 77 29.98 0.0
04 12:15 S 9 G 22 10.00 Fair CLR 73.4 46.4 38% 29.98 0.0
04 11:55 S 15 G 21 10.00 Fair CLR 75.2 46.4 36% 77 29.99 0.0
04 11:35 S 14 G 20 10.00 Fair CLR 73.4 46.4 38% 30 0.0
04 11:15 S 12 G 17 10.00 Fair CLR 73.4 46.4 38% 30.01 0.0
04 10:55 S 9 10.00 Fair CLR 73.4 48.2 41% 30.01 0.0 0.01
04 10:35 SW 9 G 18 10.00 Fair CLR 71.6 48.2 44% 30.01 0.0 0.01
04 10:15 SW 10 10.00 Fair CLR 71.6 50 47% 30.01 0.0 0.01
04 09:55 S 9 10.00 Fair CLR 69.8 50 50% 30.02 0.0
04 09:35 SW 9 10.00 Fair CLR 68 50 53% 30.02 0.0
04 09:15 SW 12 10.00 Fair CLR 66.2 50 56% 30.02 0.0
04 08:55 SW 9 10.00 Fair CLR 64.4 51.8 64% 30.02 0.0
04 08:35 S 7 10.00 Fair CLR 62.6 51.8 68% 30.01 0.0
04 08:15 S 5 10.00 Fair CLR 60.8 51.8 72% 30.01 0.0
04 07:55 Calm 10.00 Fair CLR 59 51.8 77% 30.02 0.0
04 07:35 Calm 10.00 Fair CLR 57.2 51.8 82% 30.01 0.0
04 07:15 Calm 10.00 Fair CLR 55.4 50 82% 30.01 0.0
04 06:55 Calm 10.00 Fair CLR 53.6 50 88% 30 0.0
04 06:35 Calm 10.00 Fair CLR 53.6 50 88% 30 0.0
04 06:15 Calm 10.00 Fair CLR 55.4 50 82% 29.99 0.0
04 05:55 Calm 10.00 Fair CLR 55.4 50 82% 30 0.0
04 05:35 Calm 10.00 Fair CLR 55.4 50 82% 30 0.0
04 05:15 Calm 10.00 Fair CLR 57.2 50 77% 30 0.0
04 04:55 Calm 10.00 Fair CLR 57.2 50 77% 30.01 0.0
04 04:35 S 5 10.00 Fair CLR 57.2 50 77% 30 0.0
04 04:15 S 3 10.00 Fair CLR 57.2 50 77% 30 0.0
04 03:55 Calm 10.00 Fair CLR 57.2 50 77% 30 0.0 0.01
04 03:35 Calm 10.00 Fair CLR 59 50 72% 30 0.0
04 03:15 S 3 10.00 Fair CLR 59 50 72% 30 0.0
04 02:55 Calm 10.00 Fair CLR 59 51.8 77% 30 0.0
04 02:36 S 3 10.00 Fair CLR 59 51.8 77% 30.01 0.0
04 02:15 SE 3 10.00 Fair CLR 55.4 51.8 88% 30.02 0.0
04 01:55 Calm 10.00 Fair CLR 55.4 51.8 88% 30.03 0.0
04 01:35 Calm 10.00 Fair CLR 55.4 51.8 88% 30.03 0.0
04 01:15 Calm 10.00 Fair CLR 57.2 51.8 82% 30.03 0.0
04 00:55 Calm 10.00 Fair CLR 55.4 51.8 88% 30.04 0.0
04 00:35 Calm 10.00 Fair CLR 55.4 51.8 88% 30.03 0.0
04 00:15 Calm 10.00 Fair CLR 59 51.8 77% 30.03 0.0
03 23:55 Calm 10.00 Fair CLR 59 51.8 77% 30.04 0.0
03 23:35 Calm 10.00 Fair CLR 59 51.8 77% 30.05 0.0
03 23:15 Calm 10.00 Fair CLR 59 51.8 77% 30.05 0.0
03 22:55 Calm 10.00 Fair CLR 59 51.8 77% 30.05 0.0
03 22:35 Calm 10.00 Fair CLR 60.8 51.8 72% 30.05 0.0
03 22:15 Calm 10.00 Fair CLR 60.8 51.8 72% 30.05 0.0
03 21:55 Calm 10.00 Fair CLR 62.6 51.8 68% 30.05 0.0
03 21:35 Calm 10.00 Fair CLR 62.6 51.8 68% 30.04 0.0
03 21:15 Calm 10.00 Partly Cloudy SCT075 62.6 51.8 68% 30.04 0.0
03 20:55 Calm 10.00 Mostly Cloudy BKN075 64.4 51.8 64% 30.03 0.0 0.01
03 20:35 Calm 10.00 Mostly Cloudy BKN075 68 50 53% 30.03 0.0 0.01
03 20:15 Calm 10.00 Mostly Cloudy BKN075 68 50 53% 30.03 0.0
03 19:55 Calm 10.00 Partly Cloudy SCT075 71.6 46.4 41% 30.02 0.0
03 19:35 Calm 10.00 Fair CLR 73.4 46.4 38% 30.02 0.0
03 19:15 SW 3 10.00 Fair CLR 73.4 46.4 38% 30.02 0.0
03 18:55 SW 3 10.00 Fair CLR 75.2 44.6 34% 77 30.02 0.0
03 18:35 S 6 10.00 Fair CLR 77 42.8 30% 78 30.02 0.0
03 18:15 SW 8 10.00 Fair CLR 78.8 41 26% 78 30.03 0.0
03 17:55 SW 5 10.00 Partly Cloudy SCT080 78.8 39.2 24% 78 30.03 0.0 0.01
03 17:35 SW 5 10.00 Partly Cloudy SCT070 78.8 42.8 28% 78 30.04 0.0
03 17:15 SW 10 10.00 Mostly Cloudy BKN070 78.8 44.6 30% 79 30.05 0.0
03 16:55 SW 5 10.00 Partly Cloudy SCT070 77 42.8 30% 78 30.05 0.0
03 16:35 SW 9 10.00 Partly Cloudy SCT070 78.8 42.8 28% 78 30.05 0.0
03 16:15 S 6 10.00 Mostly Cloudy BKN070 78.8 44.6 30% 79 30.06 0.0
03 15:55 W 3 10.00 Partly Cloudy SCT070 78.8 42.8 28% 78 30.07 0.0 0.01
03 15:35 Calm 10.00 Partly Cloudy SCT070 78.8 42.8 28% 78 30.08 0.0 0.01
03 15:15 SW 10 10.00 Partly Cloudy SCT070 77 42.8 30% 78 30.1 0.0 0.01
03 14:55 W 8 10.00 Partly Cloudy SCT070 78.8 44.6 30% 79 30.1 0.0
03 14:35 SW 8 10.00 Partly Cloudy SCT070 78.8 44.6 30% 79 30.12 0.0
03 14:15 W 9 10.00 Partly Cloudy SCT070 78.8 44.6 30% 79 30.13 0.0
03 13:55 W 13 G 18 10.00 Fair CLR 77 42.8 30% 78 30.14 0.0 0.01
03 13:35 SW 13 G 18 10.00 Fair CLR 77 42.8 30% 78 30.15 0.0 0.01
03 13:15 W 12 10.00 Fair CLR 77 44.6 32% 78 30.16 0.0 0.01
03 12:55 W 10 10.00 Fair CLR 77 44.6 32% 78 30.17 0.0
03 12:35 W 10 10.00 Fair CLR 77 44.6 32% 78 30.17 0.0
03 12:15 W 7 10.00 Fair CLR 75.2 44.6 34% 77 30.18 0.0
03 11:55 Calm 10.00 Fair CLR 73.4 44.6 36% 30.19 0.0
03 11:35 SW 8 10.00 Fair CLR 73.4 44.6 36% 30.19 0.0
03 11:15 SW 3 10.00 Fair CLR 71.6 46.4 41% 30.19 0.0
03 10:55 NW 5 10.00 Fair CLR 69.8 50 50% 30.19 0.0
03 10:35 W 5 10.00 Fair CLR 68 51.8 56% 30.2 0.0
03 10:15 SW 5 10.00 Fair CLR 68 51.8 56% 30.2 0.0
03 09:55 Calm 10.00 Fair CLR 64.4 50 60% 30.2 0.0
03 09:35 Calm 10.00 Partly Cloudy SCT085 62.6 51.8 68% 30.2 0.0
03 09:15 Calm 10.00 Partly Cloudy SCT085 59 51.8 77% 30.2 0.0
03 08:55 Calm 10.00 Mostly Cloudy BKN085 57.2 51.8 82% 30.2 0.0
03 08:35 Calm 10.00 Mostly Cloudy BKN085 55.4 51.8 88% 30.2 0.0
03 08:15 Calm 10.00 Mostly Cloudy BKN085 53.6 51.8 94% 30.2 0.0
03 07:55 Calm 10.00 Partly Cloudy SCT085 51.8 48.2 88% 30.19 0.0
03 07:35 Calm 10.00 Fair CLR 50 46.4 88% 30.19 0.0
03 07:15 Calm 10.00 Partly Cloudy SCT075 50 46.4 88% 30.18 0.0
03 06:55 Calm 10.00 Mostly Cloudy BKN075 48.2 44.6 87% 30.17 0.0
03 06:35 Calm 10.00 Partly Cloudy SCT075 46.4 44.6 93% 30.16 0.0
03 06:15 Calm 10.00 Partly Cloudy SCT070 46.4 44.6 93% 30.15 0.0
03 05:55 Calm 10.00 Fair CLR 48.2 44.6 87% 30.15 0.0
03 05:35 Calm 10.00 Fair CLR 46.4 44.6 93% 30.14 0.0
03 05:15 Calm 10.00 Fair CLR 48.2 46.4 94% 30.14 0.0
03 04:55 Calm 10.00 Fair CLR 48.2 46.4 94% 30.14 0.0
03 04:35 Calm 10.00 Fair CLR 46.4 44.6 93% 30.14 0.0
03 04:15 Calm 10.00 Fair CLR 48.2 46.4 94% 30.14 0.0
03 03:55 Calm 10.00 Fair CLR 48.2 46.4 94% 30.14 0.0
03 03:35 Calm 10.00 Fair CLR 50 46.4 88% 30.14 0.0
03 03:15 Calm 10.00 Fair CLR 50 46.4 88% 30.14 0.0
03 02:55 Calm 10.00 Fair CLR 50 46.4 88% 30.13 0.0
03 02:35 Calm 7.00 Fair CLR 50 46.4 88% 30.13 0.0
03 02:15 Calm 10.00 Fair CLR 50 48.2 94% 30.13 0.0
03 01:55 Calm 10.00 Fair CLR 50 48.2 94% 30.13 0.0
03 01:35 Calm 10.00 Fair CLR 50 48.2 94% 30.13 0.0
03 01:15 Calm 10.00 Fair CLR 51.8 48.2 88% 30.13 0.0
03 00:55 Calm 10.00 Fair CLR 51.8 48.2 88% 30.14 0.0
03 00:35 Calm 10.00 Fair CLR 51.8 50 94% 30.14 0.0
03 00:15 Calm 10.00 Fair CLR 51.8 48.2 88% 30.13 0.0
02 23:55 Calm 10.00 Fair CLR 51.8 50 94% 30.13 0.0 0.01
02 23:35 Calm 10.00 Fair CLR 51.8 50 94% 30.13 0.0
02 23:15 Calm 10.00 Fair CLR 53.6 50 88% 30.13 0.0
02 22:55 Calm 10.00 Fair CLR 53.6 50 88% 30.13 0.0
02 22:35 Calm 10.00 Fair CLR 53.6 50 88% 30.12 0.0
02 22:15 Calm 10.00 Fair CLR 53.6 50 88% 30.12 0.0
02 21:55 Calm 10.00 Fair CLR 55.4 50 82% 30.12 0.0
02 21:35 Calm 10.00 Fair CLR 55.4 50 82% 30.11 0.0
02 21:15 Calm 10.00 Fair CLR 57.2 50 77% 30.1 0.0
02 20:55 Calm 10.00 Fair CLR 59 48.2 68% 30.1 0.0
02 20:35 Calm 10.00 Fair CLR 59 50 72% 30.09 0.0
02 20:15 Calm 10.00 Fair CLR 60.8 42.8 52% 30.08 0.0
02 19:55 Calm 10.00 Fair CLR 64.4 44.6 49% 30.08 0.0
02 19:35 Calm 10.00 Fair CLR 68 42.8 40% 30.08 0.0
02 18:55 Calm 10.00 Partly Cloudy SCT080 71.6 41 33% 30.07 0.0
Date Time (cdt) Wind (mph) Vis. (mi.) Weather Sky Cond. Air Dwpt Max. Min. Relative Humidity Wind Chill (°F) Heat Index (°F) altimeter (in) sea level (mb) 1 hr 3 hr 6 hr
6 hour
Temperature (ºF) Pressure Precipitation (in)